Time;durP1;ratioP1;P1;durP2;ratioP2;P2;SDS_P1;SDS_P2;PMS_P1;PMS_P2;Temp;Humidity;BMP_temperature;BMP_pressure;BME280_temperature;BME280_humidity;BME280_pressure;Samples;Min_cycle;Max_cycle;Signal;HPM_P1;HPM_P2
2023/04/09 00:01:50;;;;;;;12.60;10.88;;;12.30;87.50;;;;;;5071346;28;20394;-62
2023/04/09 00:04:15;;;;;;;14.02;10.23;;;12.30;87.50;;;;;;5069321;28;20027;-62
2023/04/09 00:06:41;;;;;;;11.80;10.07;;;12.20;87.90;;;;;;5073797;28;20669;-62
2023/04/09 00:09:06;;;;;;;11.63;10.10;;;12.20;87.70;;;;;;5070402;28;20088;-63
2023/04/09 00:11:32;;;;;;;13.20;10.20;;;12.10;87.70;;;;;;5073603;28;20493;-62
2023/04/09 00:13:58;;;;;;;11.52;9.82;;;12.10;87.90;;;;;;5073273;28;20028;-62
2023/04/09 00:16:23;;;;;;;11.18;9.32;;;12.10;87.90;;;;;;5074251;28;20497;-63
2023/04/09 00:18:49;;;;;;;10.20;9.10;;;12.10;87.90;;;;;;5073331;28;20020;-62
2023/04/09 00:21:15;;;;;;;12.98;9.60;;;12.10;87.60;;;;;;5076664;28;20383;-57
2023/04/09 00:23:41;;;;;;;11.63;8.80;;;12.10;87.60;;;;;;5073122;28;20449;-56
2023/04/09 00:26:07;;;;;;;11.60;9.00;;;12.00;87.70;;;;;;5073459;28;20072;-58
2023/04/09 00:28:33;;;;;;;11.55;9.07;;;12.00;87.70;;;;;;5073006;28;20463;-58
2023/04/09 00:30:59;;;;;;;9.95;8.52;;;12.00;87.80;;;;;;5072674;28;20444;-56
2023/04/09 00:33:25;;;;;;;11.93;9.32;;;12.00;87.90;;;;;;5072747;28;20052;-58
2023/04/09 00:35:51;;;;;;;11.77;8.70;;;12.00;87.80;;;;;;5066232;28;20028;-59
2023/04/09 00:38:16;;;;;;;12.05;8.90;;;11.90;87.40;;;;;;5072428;28;20039;-57
2023/04/09 00:40:42;;;;;;;10.90;9.50;;;11.90;87.60;;;;;;5073012;28;20391;-59
2023/04/09 00:43:08;;;;;;;14.25;9.43;;;11.90;87.60;;;;;;5072829;28;20507;-58
2023/04/09 00:45:33;;;;;;;9.88;8.70;;;11.90;87.60;;;;;;5071921;28;20471;-58
2023/04/09 00:47:59;;;;;;;10.48;8.48;;;11.90;87.60;;;;;;5072154;28;20036;-60
2023/04/09 00:50:25;;;;;;;11.10;8.95;;;11.90;87.70;;;;;;5062499;28;20028;-63
2023/04/09 00:52:51;;;;;;;12.50;9.45;;;11.80;87.70;;;;;;5074065;28;20124;-62
2023/04/09 00:55:17;;;;;;;9.65;8.50;;;11.80;87.70;;;;;;5072562;28;20099;-62
2023/04/09 00:57:43;;;;;;;12.88;10.50;;;11.80;88.00;;;;;;5072558;28;20035;-62
2023/04/09 01:00:10;;;;;;;12.05;9.25;;;11.80;88.00;;;;;;5072435;28;20710;-62
2023/04/09 01:02:36;;;;;;;10.63;9.13;;;11.80;87.70;;;;;;5065663;28;20087;-62
2023/04/09 01:05:02;;;;;;;10.02;8.60;;;11.80;87.70;;;;;;5071987;28;20025;-62
2023/04/09 01:07:44;;;;;;;12.02;9.15;;;11.80;87.70;;;;;;5072167;28;20165;-63
2023/04/09 01:10:28;;;;;;;12.88;10.18;;;11.80;87.70;;;;;;5060851;28;20035;-63
2023/04/09 01:13:18;;;;;;;12.55;9.60;;;11.80;87.90;;;;;;5059993;28;20020;-62
2023/04/09 01:15:59;;;;;;;12.35;10.25;;;11.80;87.80;;;;;;5081882;28;20118;-62
2023/04/09 01:18:37;;;;;;;13.10;9.77;;;11.80;87.60;;;;;;5072193;28;20431;-62
2023/04/09 01:21:22;;;;;;;12.05;9.90;;;11.90;87.70;;;;;;5066582;28;20093;-62
2023/04/09 01:24:05;;;;;;;11.27;9.70;;;11.80;87.50;;;;;;5075036;28;20479;-62
2023/04/09 01:26:52;;;;;;;11.02;9.88;;;11.90;87.70;;;;;;5071250;28;20080;-63
2023/04/09 01:29:20;;;;;;;12.10;9.98;;;11.90;87.60;;;;;;5061021;28;20579;-62
2023/04/09 01:31:47;;;;;;;13.43;11.10;;;11.90;87.70;;;;;;5070380;28;20024;-62
2023/04/09 01:34:14;;;;;;;12.77;10.60;;;11.90;87.90;;;;;;5058557;28;20037;-62
2023/04/09 01:36:41;;;;;;;13.98;11.45;;;11.90;87.90;;;;;;5071505;28;20056;-62
2023/04/09 01:39:08;;;;;;;13.52;11.35;;;11.90;87.90;;;;;;5073838;28;20426;-62
2023/04/09 01:41:35;;;;;;;14.27;11.25;;;11.90;88.00;;;;;;5071671;28;20844;-62
2023/04/09 01:44:02;;;;;;;12.25;10.73;;;11.90;88.00;;;;;;5071180;28;20032;-63
2023/04/09 01:46:29;;;;;;;15.02;11.13;;;11.80;88.20;;;;;;5073641;28;20021;-62
2023/04/09 01:48:56;;;;;;;16.60;12.10;;;11.80;88.30;;;;;;5068328;28;20024;-62
2023/04/09 01:51:22;;;;;;;16.00;14.15;;;11.80;88.50;;;;;;5068518;28;20024;-62
2023/04/09 01:53:48;;;;;;;18.45;13.45;;;11.80;88.80;;;;;;5075364;28;20043;-63
2023/04/09 01:56:14;;;;;;;19.20;13.45;;;11.80;89.10;;;;;;5074246;28;20016;-62
2023/04/09 01:58:40;;;;;;;15.98;12.15;;;11.70;89.50;;;;;;5069573;28;20032;-63
2023/04/09 02:01:11;;;;;;;17.20;12.20;;;11.70;89.80;;;;;;5070894;28;20123;-62
2023/04/09 02:03:39;;;;;;;;;;;11.70;89.90;;;;;;5068469;28;20107;-62
2023/04/09 02:06:46;;;;;;;13.95;10.55;;;11.70;89.50;;;;;;5059988;28;20347;-63
2023/04/09 02:09:12;;;;;;;11.55;9.75;;;11.70;89.70;;;;;;5055057;28;20043;-62
2023/04/09 02:11:41;;;;;;;12.93;10.10;;;11.70;90.00;;;;;;5071374;28;20085;-63
2023/04/09 02:14:07;;;;;;;14.57;10.80;;;11.70;90.10;;;;;;5062563;28;20082;-62
2023/04/09 02:16:35;;;;;;;14.82;11.32;;;11.70;90.20;;;;;;5075410;28;20379;-62
2023/04/09 02:19:01;;;;;;;13.05;10.95;;;11.70;90.20;;;;;;5071850;28;20068;-62
2023/04/09 02:21:27;;;;;;;13.77;11.70;;;11.70;90.30;;;;;;5076818;28;20036;-62
2023/04/09 02:23:54;;;;;;;15.93;11.43;;;11.70;90.30;;;;;;5071294;28;20031;-63
2023/04/09 02:26:20;;;;;;;14.63;11.25;;;11.70;90.40;;;;;;5066311;28;20053;-62
2023/04/09 02:28:46;;;;;;;17.20;11.40;;;11.70;90.40;;;;;;5063145;28;20039;-62
2023/04/09 02:31:12;;;;;;;13.68;11.52;;;11.70;90.50;;;;;;5071075;28;20024;-63
2023/04/09 02:33:37;;;;;;;14.23;11.55;;;11.60;90.60;;;;;;5054742;28;20037;-62
2023/04/09 02:36:04;;;;;;;13.52;11.60;;;11.60;90.60;;;;;;5066746;28;20032;-58
2023/04/09 02:38:30;;;;;;;14.95;12.25;;;11.60;90.70;;;;;;5074071;28;20027;-58
2023/04/09 02:40:56;;;;;;;14.00;11.55;;;11.60;90.60;;;;;;5070621;28;20430;-63
2023/04/09 02:43:21;;;;;;;15.48;11.25;;;11.60;90.70;;;;;;5071142;28;20028;-62
2023/04/09 02:45:47;;;;;;;16.42;12.13;;;11.60;90.70;;;;;;5069773;28;20024;-63
2023/04/09 02:48:13;;;;;;;16.23;12.82;;;11.60;90.70;;;;;;5066778;28;20383;-63
2023/04/09 02:50:38;;;;;;;16.38;12.55;;;11.60;90.70;;;;;;5069778;28;20568;-63
2023/04/09 02:53:04;;;;;;;13.98;11.50;;;11.50;90.70;;;;;;5077786;28;20016;-62
2023/04/09 02:55:30;;;;;;;14.45;11.93;;;11.50;90.70;;;;;;5075611;28;20032;-63
2023/04/09 02:57:56;;;;;;;17.40;12.32;;;11.50;90.80;;;;;;5073320;28;20102;-62
2023/04/09 03:00:21;;;;;;;13.25;11.40;;;11.50;90.80;;;;;;5074340;28;20062;-63
2023/04/09 03:02:47;;;;;;;14.98;12.38;;;11.50;90.90;;;;;;5064661;28;20036;-63
2023/04/09 03:05:12;;;;;;;16.30;12.23;;;11.50;91.00;;;;;;5071438;28;20036;-63
2023/04/09 03:07:38;;;;;;;15.27;12.38;;;11.50;91.00;;;;;;5074414;28;20394;-64
2023/04/09 03:10:04;;;;;;;17.63;12.40;;;11.50;91.10;;;;;;5074674;28;20105;-65
2023/04/09 03:12:30;;;;;;;16.73;11.82;;;11.50;91.10;;;;;;5074786;28;20032;-62
2023/04/09 03:14:55;;;;;;;15.23;11.90;;;11.50;91.20;;;;;;5073620;28;20036;-63
2023/04/09 03:17:24;;;;;;;15.55;11.93;;;11.50;91.20;;;;;;5081938;28;20040;-62
2023/04/09 03:19:50;;;;;;;15.18;12.30;;;11.50;91.20;;;;;;5074393;28;20059;-62
2023/04/09 03:22:15;;;;;;;15.60;12.65;;;11.60;91.20;;;;;;5075872;28;20064;-62
2023/04/09 03:24:41;;;;;;;11.90;10.30;;;11.60;91.20;;;;;;5072873;28;20123;-63
2023/04/09 03:27:07;;;;;;;12.63;10.48;;;11.60;91.20;;;;;;5056374;28;20670;-63
2023/04/09 03:29:32;;;;;;;14.23;10.77;;;11.70;91.20;;;;;;5074092;28;20041;-63
2023/04/09 03:31:58;;;;;;;13.88;12.15;;;11.60;91.10;;;;;;5073547;28;20128;-63
2023/04/09 03:34:24;;;;;;;14.90;11.18;;;11.70;91.20;;;;;;5072986;28;20044;-63
2023/04/09 03:36:50;;;;;;;13.05;10.60;;;11.70;91.20;;;;;;5077464;28;20074;-63
2023/04/09 03:39:16;;;;;;;13.60;10.27;;;11.70;91.20;;;;;;5073165;28;20020;-63
2023/04/09 03:41:42;;;;;;;13.85;10.75;;;11.70;91.10;;;;;;5074064;28;20078;-62
2023/04/09 03:44:07;;;;;;;12.38;9.95;;;11.70;91.20;;;;;;5074422;28;20032;-63
2023/04/09 03:46:33;;;;;;;12.88;10.65;;;11.70;91.10;;;;;;5079346;28;20085;-63
2023/04/09 03:48:58;;;;;;;11.35;9.80;;;11.70;91.20;;;;;;5075240;28;20024;-63
2023/04/09 03:51:24;;;;;;;12.50;10.23;;;11.70;91.20;;;;;;5074213;28;20032;-58
2023/04/09 03:53:50;;;;;;;14.98;9.63;;;11.70;91.30;;;;;;5082864;28;20025;-58
2023/04/09 03:56:15;;;;;;;11.82;9.40;;;11.70;91.20;;;;;;5074333;28;20028;-67
2023/04/09 03:58:41;;;;;;;12.40;10.00;;;11.70;91.30;;;;;;5077944;28;20383;-65
2023/04/09 04:01:06;;;;;;;12.15;9.40;;;11.80;91.30;;;;;;5074716;28;20029;-68
2023/04/09 04:03:32;;;;;;;12.93;9.80;;;11.80;91.30;;;;;;5066340;28;20040;-65
2023/04/09 04:06:02;;;;;;;12.23;9.82;;;11.90;91.30;;;;;;5073887;28;20392;-67
2023/04/09 04:08:28;;;;;;;10.70;8.90;;;11.90;91.20;;;;;;5073986;28;20531;-67
2023/04/09 04:10:54;;;;;;;9.95;8.85;;;12.00;91.30;;;;;;5073274;28;20036;-63
2023/04/09 04:13:20;;;;;;;11.23;9.25;;;12.00;91.30;;;;;;5073475;28;20036;-62
2023/04/09 04:15:46;;;;;;;10.40;8.90;;;12.10;91.30;;;;;;5078279;28;20020;-63
2023/04/09 04:18:11;;;;;;;11.15;9.15;;;12.10;91.30;;;;;;5076336;28;20549;-63
2023/04/09 04:20:38;;;;;;;10.43;8.45;;;12.10;91.20;;;;;;5073399;28;20029;-66
2023/04/09 04:23:03;;;;;;;10.18;8.32;;;12.20;91.20;;;;;;5074387;28;20132;-64
2023/04/09 04:25:30;;;;;;;10.35;8.00;;;12.20;91.00;;;;;;5073304;28;20435;-65
2023/04/09 04:27:56;;;;;;;8.98;7.75;;;12.20;90.90;;;;;;5072471;28;20039;-65
2023/04/09 04:30:22;;;;;;;9.82;8.25;;;12.30;90.90;;;;;;5073421;28;20467;-65
2023/04/09 04:32:48;;;;;;;10.20;8.82;;;12.30;90.70;;;;;;5064563;28;20064;-64
2023/04/09 04:35:13;;;;;;;9.85;8.50;;;12.30;90.70;;;;;;5064606;28;20486;-63
2023/04/09 04:37:39;;;;;;;9.88;8.35;;;12.40;90.50;;;;;;5072784;28;20165;-63
2023/04/09 04:40:06;;;;;;;9.75;8.05;;;12.40;90.50;;;;;;5071880;28;20033;-66
2023/04/09 04:42:32;;;;;;;9.52;7.60;;;12.50;90.40;;;;;;5072937;28;20063;-65
2023/04/09 04:44:58;;;;;;;8.85;7.93;;;12.50;90.40;;;;;;5072522;28;20029;-66
2023/04/09 04:47:23;;;;;;;8.93;8.00;;;12.60;90.40;;;;;;5077405;28;20111;-66
2023/04/09 04:49:49;;;;;;;10.30;8.18;;;12.70;90.10;;;;;;5061611;28;20033;-66
2023/04/09 04:52:15;;;;;;;8.65;7.75;;;12.80;89.80;;;;;;5072634;28;20023;-65
2023/04/09 04:54:40;;;;;;;9.10;7.03;;;12.90;89.10;;;;;;5081316;28;20032;-65
2023/04/09 04:57:06;;;;;;;9.15;7.80;;;12.90;88.50;;;;;;5071801;28;20099;-65
2023/04/09 04:59:32;;;;;;;10.02;7.30;;;13.00;88.00;;;;;;5072476;28;20509;-65
2023/04/09 05:01:58;;;;;;;8.10;7.13;;;13.00;87.60;;;;;;5071078;28;20028;-63
2023/04/09 05:04:23;;;;;;;8.60;7.68;;;13.00;87.30;;;;;;5063475;28;20039;-63
2023/04/09 05:06:49;;;;;;;7.78;6.88;;;13.00;87.10;;;;;;5072438;28;20447;-63
2023/04/09 05:09:15;;;;;;;8.88;7.25;;;13.10;87.00;;;;;;5070914;28;20025;-63
2023/04/09 05:11:40;;;;;;;8.63;6.75;;;13.10;87.30;;;;;;5073009;28;20028;-63
2023/04/09 05:14:06;;;;;;;7.53;6.53;;;13.30;87.60;;;;;;5079851;28;20032;-63
2023/04/09 05:16:32;;;;;;;7.85;6.63;;;13.60;87.30;;;;;;5075290;28;20055;-63
2023/04/09 05:18:57;;;;;;;7.35;6.43;;;13.80;87.00;;;;;;5071387;28;20063;-63
2023/04/09 05:21:23;;;;;;;8.15;6.57;;;14.20;86.60;;;;;;5073006;28;20039;-66
2023/04/09 05:23:49;;;;;;;7.38;6.45;;;14.60;85.70;;;;;;5070661;28;20037;-65
2023/04/09 05:26:14;;;;;;;8.63;6.32;;;14.90;84.70;;;;;;5071769;28;20123;-65
2023/04/09 05:28:40;;;;;;;9.65;6.90;;;15.30;83.70;;;;;;5072097;28;20369;-66
2023/04/09 05:31:11;;;;;;;10.00;7.00;;;15.60;82.60;;;;;;5070565;28;20381;-63
2023/04/09 05:33:37;;;;;;;7.80;6.55;;;15.90;81.40;;;;;;5067698;28;20033;-62
2023/04/09 05:36:04;;;;;;;8.80;6.28;;;16.10;80.10;;;;;;5070614;28;20108;-62
2023/04/09 05:38:30;;;;;;;9.27;7.03;;;16.20;79.00;;;;;;5072028;28;20044;-63
2023/04/09 05:40:56;;;;;;;7.65;6.07;;;16.20;78.20;;;;;;5073123;28;20336;-61
2023/04/09 05:43:21;;;;;;;7.68;6.82;;;16.20;78.00;;;;;;5065026;28;20084;-61
2023/04/09 05:45:47;;;;;;;8.23;6.35;;;16.20;77.90;;;;;;5067065;28;20048;-62
2023/04/09 05:48:13;;;;;;;8.55;6.30;;;16.30;77.40;;;;;;5079767;28;20029;-62
2023/04/09 05:50:38;;;;;;;9.18;7.15;;;16.40;76.50;;;;;;5070280;28;20028;-61
2023/04/09 05:53:04;;;;;;;8.18;6.65;;;16.50;75.90;;;;;;5077811;28;20066;-62
2023/04/09 05:55:33;;;;;;;7.18;6.28;;;16.60;75.70;;;;;;5072740;28;20032;-62
2023/04/09 05:57:59;;;;;;;8.23;6.00;;;16.60;75.00;;;;;;5070968;28;20328;-61
2023/04/09 06:00:25;;;;;;;6.32;5.13;;;16.50;74.60;;;;;;5071237;28;20039;-61
2023/04/09 06:02:50;;;;;;;7.40;5.60;;;16.50;74.50;;;;;;5070271;28;20045;-61
2023/04/09 06:05:16;;;;;;;6.10;5.38;;;16.40;74.10;;;;;;5077777;28;20066;-62
2023/04/09 06:07:42;;;;;;;6.85;5.00;;;16.40;73.90;;;;;;5071546;28;20025;-61
2023/04/09 06:10:07;;;;;;;6.57;5.50;;;16.30;73.90;;;;;;5070975;28;20028;-61
2023/04/09 06:12:34;;;;;;;8.25;5.95;;;16.20;73.90;;;;;;5072785;28;20032;-61
2023/04/09 06:15:00;;;;;;;8.57;5.97;;;16.10;74.20;;;;;;5069126;28;20029;-60
2023/04/09 06:17:27;;;;;;;6.88;5.50;;;16.00;74.30;;;;;;5078577;28;20032;-60
2023/04/09 06:19:53;;;;;;;7.93;6.18;;;15.90;75.30;;;;;;5071007;28;20020;-62
2023/04/09 06:22:18;;;;;;;7.60;6.38;;;15.70;74.60;;;;;;5071941;28;20467;-61
2023/04/09 06:24:44;;;;;;;7.63;5.57;;;15.60;74.80;;;;;;5072630;28;20053;-60
2023/04/09 06:27:10;;;;;;;5.95;5.00;;;15.50;74.90;;;;;;5070086;28;20028;-60
2023/04/09 06:29:35;;;;;;;7.90;6.00;;;15.40;75.00;;;;;;5070660;28;20032;-60
2023/04/09 06:32:02;;;;;;;7.75;5.97;;;15.30;75.10;;;;;;5069318;28;20029;-60
2023/04/09 06:34:28;;;;;;;6.15;5.05;;;15.20;75.20;;;;;;5066132;28;20029;-61
2023/04/09 06:36:54;;;;;;;6.72;5.50;;;15.10;75.20;;;;;;5071224;28;20032;-60
2023/04/09 06:39:20;;;;;;;6.38;4.88;;;15.10;75.00;;;;;;5071306;28;20041;-60
2023/04/09 06:41:46;;;;;;;5.63;5.03;;;15.00;75.50;;;;;;5069906;28;20036;-61
2023/04/09 06:44:12;;;;;;;6.57;5.13;;;14.90;75.00;;;;;;5069794;28;20469;-60
2023/04/09 06:46:37;;;;;;;6.03;5.13;;;14.90;75.10;;;;;;5070040;28;20161;-60
2023/04/09 06:49:03;;;;;;;7.50;4.63;;;14.80;75.30;;;;;;5070589;28;20019;-61
2023/04/09 06:51:29;;;;;;;6.97;5.47;;;14.80;75.60;;;;;;5070659;28;20108;-61
2023/04/09 06:53:54;;;;;;;6.03;4.68;;;14.90;75.70;;;;;;5080159;28;21232;-61
2023/04/09 06:56:20;;;;;;;6.15;4.43;;;15.00;75.60;;;;;;5070945;28;20417;-61
2023/04/09 06:58:46;;;;;;;5.53;4.50;;;15.10;75.30;;;;;;5068535;28;20063;-61
2023/04/09 07:01:11;;;;;;;5.90;4.75;;;15.20;75.20;;;;;;5069752;28;20041;-62
2023/04/09 07:03:37;;;;;;;5.50;4.60;;;15.30;75.10;;;;;;5063843;28;20518;-62
2023/04/09 07:06:03;;;;;;;6.30;4.95;;;15.40;74.60;;;;;;5067293;28;20032;-61
2023/04/09 07:08:29;;;;;;;4.95;3.90;;;15.60;74.40;;;;;;5049792;28;20024;-63
2023/04/09 07:10:55;;;;;;;5.68;4.28;;;15.70;74.00;;;;;;5060343;28;20498;-62
2023/04/09 07:13:20;;;;;;;5.32;4.55;;;15.80;73.70;;;;;;5068300;28;20043;-61
2023/04/09 07:15:46;;;;;;;5.45;4.10;;;16.00;73.40;;;;;;5074856;28;20020;-62
2023/04/09 07:18:12;;;;;;;5.85;4.35;;;16.10;73.10;;;;;;5074514;28;20425;-62
2023/04/09 07:20:37;;;;;;;5.82;4.72;;;16.20;72.80;;;;;;5079601;28;20032;-62
2023/04/09 07:23:03;;;;;;;6.70;4.65;;;16.30;72.50;;;;;;5071212;28;20033;-62
2023/04/09 07:25:29;;;;;;;5.68;4.22;;;16.40;72.20;;;;;;5070598;28;20052;-63
2023/04/09 07:27:55;;;;;;;4.68;4.10;;;16.40;71.90;;;;;;5068474;28;20100;-62
2023/04/09 07:30:20;;;;;;;5.65;4.57;;;16.50;71.50;;;;;;5076940;28;20044;-63
2023/04/09 07:32:46;;;;;;;4.97;4.15;;;16.50;71.30;;;;;;5070703;28;20025;-62
2023/04/09 07:35:11;;;;;;;4.85;3.95;;;16.50;71.00;;;;;;5061681;28;20666;-62
2023/04/09 07:37:37;;;;;;;4.68;3.92;;;16.50;70.80;;;;;;5070397;28;20025;-63
2023/04/09 07:40:03;;;;;;;4.88;3.95;;;16.40;70.50;;;;;;5070551;28;20040;-63
2023/04/09 07:42:29;;;;;;;4.95;4.03;;;16.40;70.60;;;;;;5073049;28;20398;-64
2023/04/09 07:44:58;;;;;;;5.00;4.00;;;16.40;70.60;;;;;;5074232;28;20082;-66
2023/04/09 07:47:24;;;;;;;5.70;4.15;;;16.40;70.40;;;;;;5082356;28;20036;-62
2023/04/09 07:49:50;;;;;;;5.57;4.03;;;16.40;70.00;;;;;;5073043;28;20032;-62
2023/04/09 07:52:15;;;;;;;5.00;4.13;;;16.40;70.00;;;;;;5071684;28;20016;-65
2023/04/09 07:54:41;;;;;;;7.35;4.60;;;16.30;69.70;;;;;;5081054;28;20398;-64
2023/04/09 07:57:07;;;;;;;5.15;4.28;;;16.20;69.60;;;;;;5071434;28;20016;-65
2023/04/09 07:59:33;;;;;;;5.00;4.32;;;16.20;69.70;;;;;;5067000;28;20108;-65
2023/04/09 08:01:59;;;;;;;5.47;4.40;;;16.20;69.70;;;;;;5073325;28;20029;-62
2023/04/09 08:04:25;;;;;;;6.20;4.50;;;16.10;69.40;;;;;;5063977;28;20058;-61
2023/04/09 08:06:52;;;;;;;7.13;4.68;;;16.10;69.30;;;;;;5072754;28;20024;-60
2023/04/09 08:09:21;;;;;;;8.02;4.72;;;16.00;69.30;;;;;;5074026;28;20024;-63
2023/04/09 08:11:48;;;;;;;5.28;4.15;;;15.90;69.00;;;;;;5071983;28;20439;-57
2023/04/09 08:14:14;;;;;;;4.38;3.97;;;15.90;69.10;;;;;;5072916;28;20025;-58
2023/04/09 08:16:45;;;;;;;5.85;4.05;;;15.80;69.20;;;;;;5057255;28;20123;-63
2023/04/09 08:19:12;;;;;;;7.18;4.95;;;15.70;69.30;;;;;;5071209;28;20033;-65
2023/04/09 08:21:39;;;;;;;5.55;4.70;;;15.60;69.50;;;;;;5073373;28;20398;-64
2023/04/09 08:24:05;;;;;;;6.18;4.95;;;15.60;69.70;;;;;;5072406;28;20635;-64
2023/04/09 08:26:31;;;;;;;6.05;4.70;;;15.60;70.00;;;;;;5054114;28;20489;-61
2023/04/09 08:28:57;;;;;;;6.35;4.93;;;15.60;70.00;;;;;;5072177;28;20036;-62
2023/04/09 08:31:23;;;;;;;6.35;4.95;;;15.60;69.90;;;;;;5084424;28;20522;-61
2023/04/09 08:33:49;;;;;;;7.53;4.90;;;15.50;69.90;;;;;;5071381;28;20032;-62
2023/04/09 08:36:15;;;;;;;5.35;4.72;;;15.40;70.00;;;;;;5071739;28;20025;-62
2023/04/09 08:38:41;;;;;;;6.00;4.72;;;15.30;70.30;;;;;;5073144;28;20031;-61
2023/04/09 08:41:07;;;;;;;6.43;4.45;;;15.20;70.70;;;;;;5071896;28;20494;-62
2023/04/09 08:43:34;;;;;;;6.03;4.47;;;15.20;71.20;;;;;;5080234;28;20036;-61
2023/04/09 08:46:01;;;;;;;8.40;5.07;;;15.10;71.40;;;;;;5074318;28;20024;-61
2023/04/09 08:48:28;;;;;;;5.78;4.57;;;15.10;71.90;;;;;;5075104;28;20036;-61
2023/04/09 08:50:54;;;;;;;6.13;4.78;;;15.10;72.00;;;;;;5070450;28;20032;-58
2023/04/09 08:53:21;;;;;;;6.03;4.57;;;15.00;72.10;;;;;;5080607;28;20412;-59
2023/04/09 08:55:47;;;;;;;6.60;5.18;;;15.00;72.10;;;;;;5071992;28;20032;-56
2023/04/09 08:58:13;;;;;;;5.90;4.90;;;15.00;72.20;;;;;;5071951;28;20020;-58
2023/04/09 09:00:39;;;;;;;5.93;4.80;;;14.90;72.20;;;;;;5078612;28;20040;-61
2023/04/09 09:03:09;;;;;;;6.35;5.30;;;14.90;72.40;;;;;;5071213;28;20422;-61
2023/04/09 09:05:42;;;;;;;5.93;4.95;;;14.80;72.50;;;;;;5072842;28;20134;-62
2023/04/09 09:08:10;;;;;;;8.55;5.55;;;14.70;72.50;;;;;;5071611;28;20066;-62
2023/04/09 09:10:45;;;;;;;5.72;5.13;;;14.50;73.40;;;;;;5073282;28;20032;-64
2023/04/09 09:13:24;;;;;;;6.82;5.28;;;14.40;73.10;;;;;;5073564;28;20359;-64
2023/04/09 09:15:54;;;;;;;6.25;5.30;;;14.30;73.70;;;;;;5069737;28;20036;-64
2023/04/09 09:18:21;;;;;;;7.03;5.30;;;14.20;74.20;;;;;;5064073;28;20025;-64
2023/04/09 09:20:46;;;;;;;6.25;5.40;;;14.10;74.60;;;;;;5072697;28;20033;-61
2023/04/09 09:23:12;;;;;;;7.97;5.63;;;14.10;75.00;;;;;;5059087;28;20036;-61
2023/04/09 09:25:39;;;;;;;6.72;5.80;;;14.00;75.40;;;;;;5070676;28;20045;-58
2023/04/09 09:28:12;;;;;;;7.00;5.50;;;14.00;75.80;;;;;;5074592;28;20117;-57
2023/04/09 09:30:39;;;;;;;8.07;5.65;;;13.90;76.00;;;;;;5071287;28;20036;-57
2023/04/09 09:33:07;;;;;;;6.53;5.32;;;13.80;76.30;;;;;;5072689;28;20029;-58
2023/04/09 09:35:50;;;;;;;7.35;5.50;;;13.80;76.50;;;;;;5069096;28;20474;-60
2023/04/09 09:38:16;;;;;;;7.50;6.10;;;13.70;77.30;;;;;;5072932;28;20108;-58
2023/04/09 09:40:42;;;;;;;7.00;5.82;;;13.70;77.00;;;;;;5081264;28;20123;-59
2023/04/09 09:43:08;;;;;;;7.82;5.78;;;13.70;77.20;;;;;;5080565;28;20052;-59
2023/04/09 09:45:36;;;;;;;9.13;6.40;;;13.60;77.40;;;;;;5066119;28;20475;-59
2023/04/09 09:48:02;;;;;;;8.57;6.00;;;13.60;77.50;;;;;;5089179;28;20073;-59
2023/04/09 09:50:30;;;;;;;8.68;6.40;;;13.50;77.70;;;;;;5083271;28;20043;-59
2023/04/09 09:53:05;;;;;;;9.43;6.35;;;13.50;78.20;;;;;;5082075;28;20023;-58
2023/04/09 09:55:33;;;;;;;8.20;6.38;;;13.50;78.70;;;;;;5073572;28;20032;-60
2023/04/09 09:58:07;;;;;;;8.50;6.40;;;13.50;78.80;;;;;;5081859;28;20032;-57
2023/04/09 10:00:35;;;;;;;8.60;6.80;;;13.40;79.00;;;;;;5058866;28;20033;-58
2023/04/09 10:03:13;;;;;;;9.10;6.60;;;13.50;79.00;;;;;;5072117;28;20371;-58
2023/04/09 10:05:40;;;;;;;7.80;6.30;;;13.40;79.10;;;;;;5072731;28;20028;-57
2023/04/09 10:08:06;;;;;;;7.68;6.53;;;13.40;79.40;;;;;;5079674;28;20024;-57
2023/04/09 10:10:32;;;;;;;7.25;6.10;;;13.40;79.50;;;;;;5068814;28;20044;-57
2023/04/09 10:12:58;;;;;;;7.00;5.68;;;13.40;79.60;;;;;;5068552;28;20366;-57
2023/04/09 10:15:27;;;;;;;7.20;6.13;;;13.40;79.70;;;;;;5082721;28;20036;-57
2023/04/09 10:17:53;;;;;;;7.72;6.30;;;13.40;79.90;;;;;;5070531;28;20104;-58
2023/04/09 10:20:27;;;;;;;6.85;5.65;;;13.40;80.10;;;;;;5069796;28;20035;-58
2023/04/09 10:22:54;;;;;;;7.68;5.90;;;13.40;80.10;;;;;;5071620;28;20395;-58
2023/04/09 10:25:20;;;;;;;7.07;6.18;;;13.50;80.20;;;;;;5071072;28;20479;-58
2023/04/09 10:27:58;;;;;;;9.10;6.45;;;13.50;80.00;;;;;;5070160;28;20032;-59
2023/04/09 10:30:32;;;;;;;7.50;6.47;;;13.50;80.20;;;;;;5071625;28;20048;-63
2023/04/09 10:33:12;;;;;;;8.10;6.28;;;13.50;80.00;;;;;;5069391;28;20024;-63
2023/04/09 10:35:38;;;;;;;8.43;6.63;;;13.50;79.90;;;;;;5058969;28;20029;-63
2023/04/09 10:38:07;;;;;;;8.00;6.20;;;13.50;79.90;;;;;;5071028;28;20037;-63
2023/04/09 10:40:34;;;;;;;8.57;6.55;;;13.50;80.00;;;;;;5071202;28;20035;-63
2023/04/09 10:43:01;;;;;;;10.50;6.72;;;13.50;80.00;;;;;;5070839;28;20232;-63
2023/04/09 10:45:40;;;;;;;8.30;6.75;;;13.40;80.20;;;;;;5070809;28;20403;-65
2023/04/09 10:48:13;;;;;;;9.07;6.47;;;13.30;80.10;;;;;;5068114;28;20064;-63
2023/04/09 10:50:43;;;;;;;8.65;6.63;;;13.20;80.50;;;;;;5071103;28;20024;-62
2023/04/09 10:53:24;;;;;;;9.52;6.78;;;13.20;81.10;;;;;;5079398;28;20382;-62
2023/04/09 10:55:54;;;;;;;8.88;6.95;;;13.10;81.40;;;;;;5069644;28;20086;-62
2023/04/09 10:58:19;;;;;;;10.93;8.50;;;12.90;81.90;;;;;;5064464;28;20487;-63
2023/04/09 11:00:48;;;;;;;8.98;8.05;;;12.90;83.10;;;;;;5070721;28;20033;-63
2023/04/09 11:03:29;;;;;;;10.50;7.90;;;12.80;83.00;;;;;;5056885;28;20116;-64
2023/04/09 11:06:01;;;;;;;9.27;7.93;;;12.80;83.70;;;;;;5069858;28;20052;-63
2023/04/09 11:08:31;;;;;;;9.48;7.90;;;12.80;84.50;;;;;;5068576;28;20111;-64
2023/04/09 11:10:58;;;;;;;9.68;7.75;;;12.80;84.80;;;;;;5071122;28;20532;-63
2023/04/09 11:13:24;;;;;;;11.25;8.57;;;12.90;85.20;;;;;;5070969;28;20032;-63
2023/04/09 11:15:50;;;;;;;9.10;7.85;;;12.90;85.20;;;;;;5082404;28;20035;-63
2023/04/09 11:18:24;;;;;;;12.35;8.80;;;13.00;85.40;;;;;;5075965;28;20020;-64
2023/04/09 11:20:57;;;;;;;10.75;9.55;;;13.00;85.40;;;;;;5073836;28;20074;-63
2023/04/09 11:23:24;;;;;;;12.85;10.85;;;13.10;85.40;;;;;;5074145;28;20039;-63
2023/04/09 11:25:51;;;;;;;15.13;10.95;;;13.10;85.50;;;;;;5067876;28;20060;-63
2023/04/09 11:28:17;;;;;;;11.82;10.35;;;13.10;85.70;;;;;;5073940;28;20036;-63
2023/04/09 11:30:43;;;;;;;13.57;11.38;;;13.00;85.70;;;;;;5082670;28;20051;-64
2023/04/09 11:33:09;;;;;;;14.02;11.77;;;13.00;86.20;;;;;;5065369;28;20025;-64
2023/04/09 11:35:37;;;;;;;13.40;11.60;;;13.00;86.50;;;;;;5071042;28;20473;-63
2023/04/09 11:38:10;;;;;;;16.65;12.18;;;13.00;86.60;;;;;;5074239;28;20043;-64
2023/04/09 11:40:46;;;;;;;14.05;11.07;;;13.00;86.60;;;;;;5074235;28;20028;-63
2023/04/09 11:43:13;;;;;;;14.65;10.95;;;13.00;86.80;;;;;;5069292;28;20154;-64
2023/04/09 11:45:39;;;;;;;13.50;10.73;;;13.00;87.10;;;;;;5072419;28;20070;-63
2023/04/09 11:48:05;;;;;;;15.40;12.10;;;13.00;87.30;;;;;;5083121;28;20020;-64
2023/04/09 11:50:31;;;;;;;15.43;11.13;;;13.00;87.60;;;;;;5073763;28;20110;-63
2023/04/09 11:52:57;;;;;;;16.05;11.50;;;13.00;87.60;;;;;;5075649;28;20502;-63
2023/04/09 11:55:29;;;;;;;16.80;12.80;;;13.00;87.60;;;;;;5076970;28;20116;-63
2023/04/09 11:57:59;;;;;;;15.38;12.15;;;13.00;87.60;;;;;;5072955;28;20039;-64
2023/04/09 12:00:26;;;;;;;14.23;11.32;;;13.00;87.80;;;;;;5073741;28;20025;-64
2023/04/09 12:03:01;;;;;;;15.73;11.80;;;13.00;88.00;;;;;;5072071;28;20036;-63
2023/04/09 12:05:34;;;;;;;16.02;12.00;;;12.90;88.10;;;;;;5072741;28;20036;-64
2023/04/09 12:08:03;;;;;;;15.88;13.07;;;12.90;88.40;;;;;;5073709;28;20036;-64
2023/04/09 12:10:31;;;;;;;18.52;13.80;;;12.90;88.50;;;;;;5073575;28;20441;-63
2023/04/09 12:13:06;;;;;;;17.50;13.52;;;12.80;88.90;;;;;;5073522;28;20047;-64
2023/04/09 12:15:37;;;;;;;19.10;13.40;;;12.70;89.10;;;;;;5078863;28;20888;-64
2023/04/09 12:18:07;;;;;;;18.98;13.55;;;12.70;89.40;;;;;;5073850;28;20028;-63
2023/04/09 12:20:38;;;;;;;19.27;13.73;;;12.60;89.60;;;;;;5073629;28;20467;-63
2023/04/09 12:23:05;;;;;;;17.15;13.60;;;12.60;90.00;;;;;;5075166;28;20118;-63
2023/04/09 12:25:35;;;;;;;17.35;13.40;;;12.50;90.10;;;;;;5073774;28;20531;-61
2023/04/09 12:28:05;;;;;;;21.70;15.03;;;12.50;90.30;;;;;;5073723;28;20036;-62
2023/04/09 12:30:31;;;;;;;16.55;13.10;;;12.50;90.40;;;;;;5073375;28;20147;-61
2023/04/09 12:32:57;;;;;;;18.13;13.98;;;12.50;90.40;;;;;;5071983;28;20032;-62
2023/04/09 12:35:23;;;;;;;16.60;13.18;;;12.50;90.50;;;;;;5070767;28;20031;-61
2023/04/09 12:37:49;;;;;;;16.55;12.98;;;12.50;90.60;;;;;;5072972;28;20021;-61
2023/04/09 12:40:16;;;;;;;15.43;12.82;;;12.50;90.60;;;;;;5072775;28;20089;-62